createdAt,value
2022-09-10T00:00:17.156Z,19.38
2022-09-10T00:05:46.474Z,19.20
2022-09-10T00:10:50.492Z,18.45
2022-09-10T00:15:57.320Z,19.08
2022-09-10T00:21:03.178Z,19.03
2022-09-10T00:26:10.485Z,18.23
2022-09-10T00:31:15.439Z,17.70
2022-09-10T00:36:19.754Z,17.30
2022-09-10T00:41:24.161Z,18.25
2022-09-10T00:46:33.765Z,19.40
2022-09-10T00:51:36.683Z,20.77
2022-09-10T00:56:43.169Z,20.33
2022-09-10T01:01:46.170Z,20.73
2022-09-10T01:06:53.973Z,19.20
2022-09-10T01:12:05.757Z,20.63
2022-09-10T01:17:11.300Z,19.33
2022-09-10T01:22:33.990Z,18.90
2022-09-10T01:27:47.925Z,19.23
2022-09-10T01:33:00.182Z,22.70
2022-09-10T01:38:09.628Z,19.17
2022-09-10T01:43:15.061Z,18.88
2022-09-10T01:48:31.297Z,19.05
2022-09-10T01:53:42.656Z,19.73
2022-09-10T01:58:48.628Z,21.40
2022-09-10T02:04:10.034Z,21.10
2022-09-10T02:09:13.164Z,20.25
2022-09-10T02:14:17.998Z,21.25
2022-09-10T02:19:51.750Z,21.23
2022-09-10T02:24:54.062Z,20.88
2022-09-10T02:30:01.726Z,22.90
2022-09-10T02:35:06.310Z,22.92
2022-09-10T02:40:09.314Z,21.80
2022-09-10T02:45:16.777Z,23.27
2022-09-10T02:50:21.477Z,22.57
2022-09-10T02:55:28.607Z,21.38
2022-09-10T03:00:34.277Z,22.88
2022-09-10T03:05:38.442Z,22.07
2022-09-10T03:10:46.498Z,19.83
2022-09-10T03:15:51.455Z,19.97
2022-09-10T03:20:53.833Z,19.30
2022-09-10T03:25:56.413Z,19.20
2022-09-10T03:31:01.438Z,18.30
2022-09-10T03:36:06.098Z,18.60
2022-09-10T03:41:13.638Z,19.87
2022-09-10T03:46:18.914Z,19.27
2022-09-10T03:51:23.370Z,20.73
2022-09-10T03:56:28.040Z,21.87
2022-09-10T04:01:35.349Z,21.88
2022-09-10T04:06:44.360Z,21.80
2022-09-10T04:11:49.943Z,21.63
2022-09-10T04:16:52.447Z,22.55
2022-09-10T04:21:55.201Z,20.65
2022-09-10T04:27:01.776Z,24.08
2022-09-10T04:32:04.465Z,23.70
2022-09-10T04:37:09.164Z,21.63
2022-09-10T04:42:15.191Z,22.88
2022-09-10T04:47:22.199Z,23.95
2022-09-10T04:52:24.975Z,25.15
2022-09-10T04:57:30.114Z,24.93
2022-09-10T05:02:34.633Z,24.40
2022-09-10T05:07:39.419Z,23.73
2022-09-10T05:12:45.046Z,24.02
2022-09-10T05:17:50.947Z,20.77
2022-09-10T05:22:54.982Z,22.30
2022-09-10T05:27:57.976Z,28.83
2022-09-10T05:33:03.252Z,20.23
2022-09-10T05:38:09.385Z,20.15
2022-09-10T05:43:13.227Z,19.83
2022-09-10T05:48:18.416Z,19.97
2022-09-10T05:53:23.482Z,19.73
2022-09-10T05:58:30.141Z,20.65
2022-09-10T06:03:38.111Z,21.50
2022-09-10T06:08:40.918Z,18.43
2022-09-10T06:13:54.039Z,18.13
2022-09-10T06:18:59.679Z,17.63
2022-09-10T06:24:03.003Z,16.00
2022-09-10T06:29:08.926Z,14.60
2022-09-10T06:34:13.736Z,15.30
2022-09-10T06:39:18.989Z,14.60
2022-09-10T06:44:29.908Z,15.73
2022-09-10T06:49:45.853Z,15.20
2022-09-10T06:54:56.886Z,14.60
2022-09-10T07:00:08.083Z,16.13
2022-09-10T07:05:11.554Z,17.53
2022-09-10T07:10:15.836Z,17.30
2022-09-10T07:15:18.436Z,31.45
2022-09-10T07:20:23.497Z,20.63
2022-09-10T07:25:26.692Z,19.08
2022-09-10T07:30:42.014Z,24.02
2022-09-10T07:35:44.980Z,17.45
2022-09-10T07:40:48.348Z,15.68
2022-09-10T07:46:02.223Z,14.85
2022-09-10T07:51:13.077Z,18.27
2022-09-10T07:56:15.433Z,16.02
2022-09-10T08:01:19.779Z,17.05
2022-09-10T08:06:25.499Z,16.65
2022-09-10T08:11:29.269Z,17.75
2022-09-10T08:16:33.186Z,17.67
2022-09-10T08:21:45.420Z,16.93
2022-09-10T08:26:51.090Z,16.13
2022-09-10T08:31:53.995Z,17.13
2022-09-10T08:37:03.498Z,19.50
2022-09-10T08:42:19.359Z,19.77
2022-09-10T08:47:34.665Z,22.80
2022-09-10T08:52:44.146Z,20.33
2022-09-10T08:57:54.914Z,19.93
2022-09-10T09:03:06.864Z,18.75
2022-09-10T09:08:25.413Z,21.75
2022-09-10T09:13:35.478Z,17.50
2022-09-10T09:18:40.988Z,19.55
2022-09-10T09:24:11.796Z,19.02
2022-09-10T09:29:16.311Z,20.58
2022-09-10T09:34:24.150Z,18.60
2022-09-10T09:39:42.654Z,22.40
2022-09-10T09:45:00.563Z,19.65
2022-09-10T09:50:12.041Z,19.57
2022-09-10T09:55:31.057Z,19.80
2022-09-10T10:00:37.901Z,21.10
2022-09-10T10:05:44.745Z,18.73
2022-09-10T10:10:52.141Z,20.53
2022-09-10T10:16:13.619Z,19.67
2022-09-10T10:21:22.476Z,23.77
2022-09-10T10:26:36.352Z,19.58
2022-09-10T10:31:41.819Z,19.60
2022-09-10T10:36:47.284Z,18.85
2022-09-10T10:42:06.284Z,18.40
2022-09-10T10:47:11.707Z,18.80
2022-09-10T10:52:13.948Z,41.43
2022-09-10T10:57:28.739Z,22.13
2022-09-10T11:02:43.635Z,19.67
2022-09-10T11:07:49.079Z,17.07
2022-09-10T11:12:51.383Z,15.87
2022-09-10T11:18:01.495Z,21.27
2022-09-10T11:23:23.914Z,19.13
2022-09-10T11:28:32.443Z,20.40
2022-09-10T11:33:46.966Z,26.53
2022-09-10T11:39:06.855Z,26.30
2022-09-10T11:44:12.710Z,27.43
2022-09-10T11:49:20.394Z,24.83
2022-09-10T11:54:27.281Z,20.37
2022-09-10T11:59:35.435Z,24.30
2022-09-10T12:04:47.615Z,19.03
2022-09-10T12:09:55.451Z,21.00
2022-09-10T12:14:57.942Z,20.33
2022-09-10T12:20:08.859Z,24.17
2022-09-10T12:25:18.527Z,19.20
2022-09-10T12:30:33.650Z,22.60
2022-09-10T12:35:36.424Z,25.10
2022-09-10T12:40:45.995Z,19.17
2022-09-10T12:46:04.624Z,21.97
2022-09-10T12:51:13.663Z,19.13
2022-09-10T12:56:34.061Z,20.67
2022-09-10T13:01:36.546Z,20.13
2022-09-10T13:06:42.698Z,19.07
2022-09-10T13:11:47.145Z,22.67
2022-09-10T13:16:49.643Z,19.67
2022-09-10T13:21:55.479Z,17.93
2022-09-10T13:27:06.489Z,18.23
2022-09-10T13:32:11.687Z,20.43
2022-09-10T13:37:35.194Z,21.07
2022-09-10T13:42:46.308Z,20.03
2022-09-10T13:47:51.539Z,18.07
2022-09-10T13:53:02.600Z,19.53
2022-09-10T13:58:16.572Z,18.17
2022-09-10T14:03:28.974Z,21.47
2022-09-10T14:08:36.055Z,18.70
2022-09-10T14:13:42.126Z,20.47
2022-09-10T14:18:48.428Z,19.10
2022-09-10T14:23:54.133Z,19.07
2022-09-10T14:29:01.463Z,21.10
2022-09-10T14:34:26.030Z,23.53
2022-09-10T14:39:28.498Z,19.80
2022-09-10T14:44:39.078Z,21.37
2022-09-10T14:49:41.948Z,23.33
2022-09-10T14:54:46.339Z,21.43
2022-09-10T14:59:48.659Z,19.67
2022-09-10T15:04:51.026Z,19.90
2022-09-10T15:09:55.897Z,23.03
2022-09-10T15:14:58.569Z,18.10
2022-09-10T15:20:03.594Z,20.27
2022-09-10T15:25:10.107Z,24.00
2022-09-10T15:30:13.264Z,21.57
2022-09-10T15:35:18.788Z,21.83
2022-09-10T15:40:25.976Z,22.67
2022-09-10T15:45:37.211Z,21.07
2022-09-10T15:50:44.097Z,22.53
2022-09-10T15:55:48.512Z,21.47
2022-09-10T16:00:50.890Z,22.47
2022-09-10T16:06:03.096Z,22.10
2022-09-10T16:11:09.169Z,25.30
2022-09-10T16:16:12.563Z,24.03
2022-09-10T16:21:22.484Z,25.37
2022-09-10T16:26:29.522Z,28.40
2022-09-10T16:31:39.214Z,31.77
2022-09-10T16:36:44.466Z,50.37
2022-09-10T16:41:47.951Z,27.50
2022-09-10T16:46:52.813Z,28.17
2022-09-10T16:51:55.115Z,23.53
2022-09-10T16:56:59.763Z,26.97
2022-09-10T17:02:02.571Z,23.20
2022-09-10T17:07:05.129Z,29.33
2022-09-10T17:12:10.376Z,27.33
2022-09-10T17:17:17.888Z,28.87
2022-09-10T17:22:20.414Z,28.87
2022-09-10T17:27:25.541Z,34.03
2022-09-10T17:32:28.030Z,30.10
2022-09-10T17:37:33.636Z,31.50
2022-09-10T17:42:38.647Z,35.03
2022-09-10T17:47:40.952Z,45.10
2022-09-10T17:52:46.019Z,42.97
2022-09-10T17:57:50.779Z,38.80
2022-09-10T18:02:55.463Z,42.57
2022-09-10T18:07:57.756Z,44.00
2022-09-10T18:13:02.951Z,45.83
2022-09-10T18:18:08.581Z,49.90
2022-09-10T18:23:16.155Z,53.70
2022-09-10T18:28:20.736Z,49.43
2022-09-10T18:33:22.959Z,49.57
2022-09-10T18:38:28.340Z,52.43
2022-09-10T18:43:31.328Z,52.30
2022-09-10T18:48:34.465Z,51.53
2022-09-10T18:53:37.329Z,34.07
2022-09-10T18:58:48.236Z,28.60
2022-09-10T19:03:51.090Z,35.07
2022-09-10T19:08:59.737Z,41.20
2022-09-10T19:14:03.143Z,39.70
2022-09-10T19:19:18.153Z,31.90
2022-09-10T19:24:32.911Z,32.47
2022-09-10T19:29:43.209Z,34.47
2022-09-10T19:34:51.580Z,33.93
2022-09-10T19:39:56.648Z,31.50
2022-09-10T19:44:59.010Z,42.20
2022-09-10T19:50:01.406Z,53.93
2022-09-10T19:55:06.290Z,45.30
2022-09-10T20:00:14.122Z,44.23
2022-09-10T20:05:29.817Z,47.53
2022-09-10T20:10:34.493Z,46.03
2022-09-10T20:15:44.840Z,45.87
2022-09-10T20:20:51.244Z,47.03
2022-09-10T20:25:55.977Z,47.53
2022-09-10T20:30:59.333Z,44.70
2022-09-10T20:36:01.860Z,43.93
2022-09-10T20:41:07.920Z,46.43
2022-09-10T20:46:16.498Z,44.43
2022-09-10T20:51:21.347Z,47.70
2022-09-10T20:56:26.155Z,46.17
2022-09-10T21:01:31.650Z,52.93
2022-09-10T21:06:34.521Z,47.23
2022-09-10T21:11:37.160Z,54.97
2022-09-10T21:16:43.308Z,48.93
2022-09-10T21:21:48.797Z,52.50
2022-09-10T21:26:51.140Z,51.70
2022-09-10T21:31:56.879Z,59.63
2022-09-10T21:36:59.105Z,56.33
2022-09-10T21:42:04.416Z,58.97
2022-09-10T21:47:09.595Z,57.30
2022-09-10T21:52:16.774Z,56.83
2022-09-10T21:57:21.626Z,59.87
2022-09-10T22:02:23.940Z,52.07
2022-09-10T22:07:26.436Z,53.03
2022-09-10T22:12:29.022Z,44.77
2022-09-10T22:17:31.276Z,40.20
2022-09-10T22:22:34.270Z,24.70
2022-09-10T22:27:36.526Z,25.40
2022-09-10T22:32:43.736Z,29.47
2022-09-10T22:37:48.255Z,28.47
2022-09-10T22:42:51.752Z,29.10
2022-09-10T22:47:56.630Z,30.90
2022-09-10T22:52:59.639Z,35.17
2022-09-10T22:58:02.131Z,29.00
2022-09-10T23:03:06.602Z,29.00
2022-09-10T23:08:11.849Z,33.07
2022-09-10T23:13:16.584Z,34.17
2022-09-10T23:18:21.324Z,30.33
2022-09-10T23:23:23.711Z,31.67
2022-09-10T23:28:26.665Z,30.30
2022-09-10T23:33:29.159Z,23.83
2022-09-10T23:38:33.389Z,25.97
2022-09-10T23:43:35.793Z,26.30
2022-09-10T23:48:45.597Z,27.97
2022-09-10T23:53:48.182Z,25.33
2022-09-10T23:58:50.406Z,28.03
